Martindale, Texas
Current Conditions -  °F | °C
As of 2:50 PM on Sunday 23 Nov 2014 (Local Time) from KHYI Reporting Station
Clear Clear  
Wind Chill: 81°   Ceiling: Unl
Heat Index: 81°   Visibility: 10mi
Dew Point: 45°   Wind: 14mph
Humidity: 28%   Direction: 240°WSW
Pressure: 29.55"   Gusts: 26mph
Location:  29.85°N, 97.84°W
Report Text: KHYI 232050Z 24012G23KT 10SM CLR 27/07 A2955
Loading
Personal Weather Stations






























Interactive Weather Map New forecast layout! Learn more

10-Day Weather Forecast

Advertisements
Track Severe Weather on mobile